Metar Cercanos

 

LEPA - Palma De Mallorc, Spain
Distance from station: ONO 38km
Actualización: 09/12/2018 19:30
Few Clouds
Few Clouds
 Viento del SSO
Viento: SSO 9 km/h
Temperatura: 17°C
Rocío: 7°C
Humedad: 52%
Barómetro: 1024 hPa
Clouds: Few Clouds
Visibility: 10 km
Cloud details: Few Clouds 610 m
2018/12/09 18:30 LEPA 091830Z 21005KT 150V250 9999 FEW020 17/07 Q1024 NOSIG
LEMH - Mahon/Menorca Is, Spain
Distance from station: ENE 105km
Actualización: 09/12/2018 19:30
Despejado
Despejado
 Viento del NNO
Viento: NNO 9 km/h
Temperatura: 12°C
Rocío: 9°C
Humedad: 82%
Barómetro: 1024 hPa
Resumen: Despejado
Visibility: greater than 10 km
2018/12/09 18:30 LEMH 091830Z 34005KT CAVOK 12/09 Q1024
 
LEIB - Ibiza/Es Codola, Spain
Distance from station: OSO 165km
Actualización: 09/12/2018 19:30
Despejado
Despejado
 Viento del SO
Viento: SO 22 km/h
Temperatura: 16°C
Rocío: 14°C
Humedad: 88%
Barómetro: 1026 hPa
Resumen: Despejado
Visibility: greater than 10 km
2018/12/09 18:30 LEIB 091830Z 23012KT CAVOK 16/14 Q1026 NOSIG
LEBL - Barcelona Airpor, Spain
Distance from station: NNO 225km
Actualización: 09/12/2018 19:30
Few Clouds
Few Clouds
 Viento del NE
Viento: NE 13 km/h
Temperatura: 14°C
Rocío: 9°C
Humedad: 72%
Barómetro: 1024 hPa
Clouds: Few Clouds
Visibility: 10 km
Cloud details: Few Clouds 1524 m
2018/12/09 18:30 LEBL 091830Z 05007KT 020V080 9999 FEW050 14/09 Q1024 NOSIG
 
LEVC - Valencia (civ/Mi, Spain
Distance from station: NO 188km
Actualización: 09/12/2018 19:30
Despejado
Despejado
 Viento del O
Viento: O 9 km/h
Temperatura: 14°C
Rocío: 9°C
Humedad: 72%
Barómetro: 1026 hPa
Resumen: Despejado
Visibility: greater than 10 km
2018/12/09 18:30 LEVC 091830Z 28005KT 210V300 CAVOK 14/09 Q1026 NOSIG
LEGE - Gerona/Costa Bra, Spain
Distance from station: N 276km
Actualización: 09/12/2018 19:30
Despejado
Despejado
 Viento del calm
Viento: Calma
Temperatura: 8°C
Rocío: 7°C
Humedad: 93%
Barómetro: 1024 hPa
Resumen: Despejado
Visibility: greater than 10 km
2018/12/09 18:30 LEGE 091830Z 00000KT CAVOK 08/07 Q1024
 
LEAL - Alicante/El Alte, Spain
Distance from station: OSO 344km
Actualización: 09/12/2018 19:30
Despejado
Despejado
 Viento del varies
Viento: varies 2 km/h
Temperatura: 15°C
Rocío: 8°C
Humedad: 63%
Barómetro: 1026 hPa
Resumen: Despejado
Visibility: greater than 10 km
2018/12/09 18:30 LEAL 091830Z VRB01KT CAVOK 15/08 Q1026 NOSIG
LEAM - Almeria Airport, Spain
Distance from station: SSO 56km
Actualización: 09/12/2018 19:30
Few Clouds
Few Clouds
 Viento del N
Viento: N 4 km/h
Temperatura: 13°C
Rocío: 12°C
Humedad: 94%
Barómetro: 1027 hPa
Clouds: Few Clouds
Visibility: 10 km
Cloud details: Few Clouds 457 m
2018/12/09 18:30 LEAM 091830Z 35002KT 9999 FEW015 13/12 Q1027
 
LEZG - Zaragoza (mil/Ci, Spain
Distance from station: NO 431km
Actualización: 09/12/2018 19:30
Despejado
Despejado
 Viento del O
Viento: O 28 km/h
Temperatura: 12°C
Rocío: 6°C
Humedad: 67%
Barómetro: 1030 hPa
Resumen: Despejado
Visibility: greater than 10 km
2018/12/09 18:30 LEZG 091830Z 27015KT CAVOK 12/06 Q1030
LEMD - Madrid/Barajas, Spain
Distance from station: ONO 234km
Actualización: 09/12/2018 19:30
Despejado
Despejado
 Viento del varies
Viento: varies 2 km/h
Temperatura: 8°C
Rocío: 7°C
Humedad: 93%
Barómetro: 1030 hPa
Resumen: Despejado
Visibility: greater than 10 km
2018/12/09 18:30 LEMD 091830Z VRB01KT CAVOK 08/07 Q1030 NOSIG
 
LEGR - Granada Airport, Spain
Distance from station: OSO 62km
Actualización: 09/12/2018 19:30
Despejado
Despejado
 Viento del calm
Viento: Calma
Temperatura: 10°C
Rocío: 6°C
Humedad: 76%
Barómetro: 1029 hPa
Resumen: Despejado
Visibility: greater than 10 km
2018/12/09 18:30 LEGR 091830Z 00000KT CAVOK 10/06 Q1029
LEMG - Malaga (civ/Mil), Spain
Distance from station: OSO 227km
Actualización: 09/12/2018 19:30
Despejado
Despejado
 Viento del varies
Viento: varies 2 km/h
Temperatura: 13°C
Rocío: 12°C
Humedad: 94%
Barómetro: 1028 hPa
Resumen: Despejado
Visibility: greater than 10 km
2018/12/09 18:30 LEMG 091830Z VRB01KT CAVOK 13/12 Q1028 NOSIG
 
LEZL - Sevilla (civ/Mil, Spain
Distance from station: S 318km
Actualización: 09/12/2018 19:30
Despejado
Despejado
 Viento del calm
Viento: Calma
Temperatura: 14°C
Rocío: 10°C
Humedad: 77%
Barómetro: 1027 hPa
Resumen: Despejado
Visibility: greater than 10 km
2018/12/09 18:30 LEZL 091830Z 00000KT CAVOK 14/10 Q1027 NOSIG
LEVT - Vitoria, Spain
Distance from station: NO 226km
Actualización: 09/12/2018 19:30
Muy nuboso
Muy nuboso
 Viento del ONO
Viento: ONO 7 km/h
Temperatura: 10°C
Sensación frio: 9°C
Rocío: 6°C
Humedad: 76%
Barómetro: 1033 hPa
Clouds: Muy nuboso
Visibility: 10 km
Cloud details: Muy nuboso 762 m
2018/12/09 18:30 LEVT 091830Z 30004KT 250V340 9999 BKN025 10/06 Q1033
 
LEBB - Bilbao/Sondica, Spain
Distance from station: NNO 235km
Actualización: 09/12/2018 19:30
Muy nuboso
Muy nuboso
 Viento del ONO
Viento: ONO 13 km/h
Temperatura: 14°C
Rocío: 10°C
Humedad: 77%
Barómetro: 1034 hPa
Clouds: Muy nuboso
Visibility: 9 km
Cloud details: Parcialmente nuboso 610 m
Muy nuboso 1524 m
2018/12/09 18:30 LEBB 091830Z 29007KT 260V330 9000 SCT020 BKN050 14/10 Q1034 NOSIG
LESO - San Sebastian/Fu, Spain
Distance from station: N 231km
Actualización: 09/12/2018 19:30
Cubierto
Cubierto
 Viento del ONO
Viento: ONO 9 km/h
Temperatura: 14°C
Rocío: 10°C
Humedad: 77%
Barómetro: 1033 hPa
Clouds: Cubierto
Visibility: 7 km
Cloud details: Parcialmente nuboso 610 m
Cubierto 1585 m
2018/12/09 18:30 LESO 091830Z 30005KT 220V010 7000 SCT020 OVC052 14/10 Q1033
 
LEVD - Valladolid(Mil/C, Spain
Distance from station: ONO 239km
Actualización: 09/12/2018 19:30
Despejado
Despejado
 Viento del OSO
Viento: OSO 4 km/h
Temperatura: 8°C
Rocío: 4°C
Humedad: 76%
Barómetro: 1032 hPa
Resumen: Despejado
Visibility: greater than 10 km
2018/12/09 18:30 LEVD 091830Z 25002KT CAVOK 08/04 Q1032
LESA - Salamanca (civ/M, Spain
Distance from station: ONO 349km
Actualización: 09/12/2018 19:30
Despejado
Despejado
 Viento del calm
Viento: Calma
Temperatura: 7°C
Rocío: 4°C
Humedad: 81%
Barómetro: 1032 hPa
Clouds: Despejado
Visibility: 10 km
2018/12/09 18:30 LESA 091830Z AUTO 00000KT 9999 NCD 07/04 Q1032
 
LEXJ - Santander/Paraya, Spain
Distance from station: NNO 247km
Actualización: 09/12/2018 19:30
Cubierto
Cubierto
 Viento del OSO
Viento: OSO 9 km/h
Temperatura: 14°C
Rocío: 11°C
Humedad: 82%
Barómetro: 1034 hPa
Clouds: Cubierto
Visibility: 6 km
Cloud details: Cubierto 1494 m
2018/12/09 18:30 LEXJ 091830Z 24005KT 210V270 6000 OVC049 14/11 Q1034
LEAS - Asturias/Aviles, Spain
Distance from station: NO 214km
Actualización: 09/12/2018 19:30
Mist, Cubierto
Mist, Cubierto
 Viento del ONO
Viento: ONO 6 km/h
Temperatura: 12°C
Rocío: 10°C
Humedad: 88%
Barómetro: 1034 hPa
Resumen: Mist
Clouds: Cubierto
Visibility: 5 km
Cloud details: Few Clouds 488 m
Muy nuboso 732 m
Cubierto 853 m
2018/12/09 18:30 LEAS 091830Z 30003KT 270V330 5000 BR FEW016 BKN024 OVC028 12/10 Q1034 TEMPO 3000 BR BKN014
 
LECO - La Coruna/Alvedr, Spain
Distance from station: ONO 222km
Actualización: 09/12/2018 19:30
Mist, Parcialmente nuboso
Mist, Parcialmente nuboso
 Viento del calm
Viento: Calma
Temperatura: 11°C
Rocío: 9°C
Humedad: 88%
Barómetro: 1034 hPa
Resumen: Mist
Clouds: Parcialmente nuboso
Visibility: 5 km
2018/12/09 18:30 LECO 091830Z 00000KT 5000 BR NSC 11/09 Q1034 TEMPO 3000 BR
LEVX - Vigo/Peinador, Spain
Distance from station: O 214km
Actualización: 09/12/2018 19:30
Despejado
Despejado
 Viento del NNE
Viento: NNE 11 km/h
Temperatura: 12°C
Rocío: 11°C
Humedad: 94%
Barómetro: 1031 hPa
Resumen: Despejado
Visibility: greater than 10 km
2018/12/09 18:30 LEVX 091830Z 02006KT CAVOK 12/11 Q1031 NOSIG